Hauptseite
METAR-TAF:

METAR-TAF

Flughäfen :

Aviano Air Base

Aviano, Italien

Breite: 46-02N, Länge: 012-36E, Höhe: 128 m

Beobachtung

Neuester Wetterbericht von vor 28 Minuten, um 07:55 UTC
Wind 3 kt aus Nordost
Temperatur 13°C
Luftfeuchtigkeit 77%
Luftdruck 1023 hPa
Sichtweite 10 km oder mehr
keine Wolken unter 1500 m und keine Kumulonimbus oder Gewitterwolken

METAR: LIPA 230755Z 04003KT CAVOK 13/09 Q1023 RMK SKC VIS MIN 9999 WIND THR05 /////KT WIND THR23 /////KT A3024 BLU

Zeit: 10:23 (08:23 UTC)

Prognose

Neuester Wetterbericht von vor 3 Stunden und 23 Minuten, um 05:00 UTC
Gültige Prognose vom 23 um 06 UTC bis 23 um 15 UTC
Wind 5 kt aus unterschiedlichen Richtungen
Sichtweite 10 km oder mehr
keine Wolken unter 1500 m und keine Kumulonimbus oder Gewitterwolken

TAF: LIPA 230500Z 2306/2315 VRB05KT CAVOK

Wetterbeobachtungen und Prognosen von mehr als 4000 Flughäfen (METAR und TAF Bericht).

Die verfügbaren Stationen werden durch gelbe und rote Markierungen auf der Karte dargestellt.

Führen Sie die Maus auf sie, um den Namen der Station zu sehen.

Darauf klicken, um die Beobachtung von Wetterbeobachtungen und Prognosen zu sehen.

Um die Karte zu ändern : klicken Sie auf den grünen Tasten mit einem schwarzen Kreuz Zum Vergrößern, auf den grünen Button mit einem Gedankenstrich zu verkleinern, oder auf die grünen Pfeile für benachbarte Karten.


METAR-TAF: